Lodi, Wisconsin
Current Conditions -  °F | °C
As of 1:55 AM on Friday 24 Oct 2014 (Local Time) from KC29 Reporting Station
Overcast Overcast  
Wind Chill: 51°   Ceiling: 300
Heat Index: 51°   Visibility: 2mi
Dew Point: 50°   Wind: 0mph
Humidity: 97%   Direction: NA
Pressure: 30.04"   Gusts: NA
Location:  43.31°N, 89.53°W
Report Text: KC29 240655Z AUTO 00000KT 2SM OVC003 11/10 A3004 RMK AO1 T01050101
Loading
Personal Weather Stations






























Interactive Weather Map
Tropical Storm Tracking
New forecast layout! Learn more

10-Day Weather Forecast

Advertisements
Track Severe Weather on mobile